Time;durP1;ratioP1;P1;durP2;ratioP2;P2;SDS_P1;SDS_P2;PMS_P1;PMS_P2;Temp;Humidity;BMP_temperature;BMP_pressure;BME280_temperature;BME280_humidity;BME280_pressure;Samples;Min_cycle;Max_cycle;Signal;HPM_P1;HPM_P2
2023/11/02 00:01:37;;;;;;;0.80;0.50;;;18.10;70.30;;;;;;5036623;28;20036;-56
2023/11/02 00:04:03;;;;;;;0.98;0.57;;;18.10;70.30;;;;;;5034654;28;20094;-54
2023/11/02 00:06:35;;;;;;;1.08;0.70;;;18.10;70.30;;;;;;5037601;28;20037;-58
2023/11/02 00:09:03;;;;;;;1.05;0.70;;;18.00;70.30;;;;;;5036126;28;20040;-52
2023/11/02 00:11:55;;;;;;;0.75;0.50;;;18.10;70.30;;;;;;5036204;28;20494;-53
2023/11/02 00:14:23;;;;;;;0.52;0.40;;;18.10;70.30;;;;;;5035178;28;20702;-57
2023/11/02 00:16:49;;;;;;;0.65;0.47;;;18.10;70.30;;;;;;5035881;28;20036;-56
2023/11/02 00:19:23;;;;;;;0.93;0.50;;;18.10;70.30;;;;;;5039991;28;20036;-53
2023/11/02 00:21:49;;;;;;;0.90;0.50;;;18.10;70.30;;;;;;5036866;28;20159;-52
2023/11/02 00:24:15;;;;;;;1.20;0.50;;;18.10;70.30;;;;;;5041061;28;20080;-55
2023/11/02 00:26:41;;;;;;;0.80;0.50;;;18.10;70.30;;;;;;5035636;28;20068;-59
2023/11/02 00:29:06;;;;;;;2.20;0.82;;;18.10;70.20;;;;;;5039522;28;20077;-51
2023/11/02 00:31:32;;;;;;;0.85;0.38;;;18.10;70.20;;;;;;5037548;28;20032;-53
2023/11/02 00:33:58;;;;;;;1.13;0.60;;;18.10;70.30;;;;;;5037500;28;20038;-59
2023/11/02 00:36:23;;;;;;;0.40;0.32;;;18.10;70.30;;;;;;5038241;28;20036;-54
2023/11/02 00:38:49;;;;;;;0.88;0.52;;;18.10;70.20;;;;;;5037088;28;20033;-56
2023/11/02 00:41:15;;;;;;;0.82;0.43;;;18.10;70.20;;;;;;5035694;28;20040;-57
2023/11/02 00:43:40;;;;;;;0.90;0.50;;;18.00;70.20;;;;;;5037839;28;20099;-56
2023/11/02 00:46:07;;;;;;;0.52;0.52;;;18.10;70.20;;;;;;5033751;28;20940;-56
2023/11/02 00:48:33;;;;;;;2.08;0.40;;;18.10;70.20;;;;;;5040166;28;20482;-56
2023/11/02 00:51:24;;;;;;;0.70;0.43;;;18.10;70.20;;;;;;5037486;28;20756;-57
2023/11/02 00:53:54;;;;;;;0.75;0.50;;;18.10;70.80;;;;;;5037534;28;20382;-56
2023/11/02 00:56:21;;;;;;;0.70;0.50;;;18.10;70.20;;;;;;5026890;28;20656;-51
2023/11/02 00:58:52;;;;;;;0.47;0.40;;;18.10;70.20;;;;;;5034583;28;20068;-50
2023/11/02 01:01:23;;;;;;;0.45;0.30;;;18.10;70.20;;;;;;5036333;28;20059;-58
2023/11/02 01:04:11;;;;;;;1.20;0.50;;;18.10;70.10;;;;;;5033911;28;20049;-57
2023/11/02 01:06:36;;;;;;;0.57;0.30;;;18.10;70.20;;;;;;4997537;28;20041;-52
2023/11/02 01:09:41;;;;;;;1.33;0.82;;;18.00;70.10;;;;;;5051435;28;20036;-58
2023/11/02 01:12:06;;;;;;;1.50;0.75;;;18.10;70.20;;;;;;5032161;28;20032;-51
2023/11/02 01:14:47;;;;;;;0.55;0.30;;;18.00;70.10;;;;;;5035076;28;20038;-55
2023/11/02 01:17:31;;;;;;;0.50;0.32;;;18.10;70.10;;;;;;5039953;28;20099;-56
2023/11/02 01:20:36;;;;;;;0.73;0.43;;;18.10;70.10;;;;;;5035718;28;20098;-53
2023/11/02 01:23:05;;;;;;;0.88;0.43;;;18.00;70.10;;;;;;5038142;28;20037;-57
2023/11/02 01:25:35;;;;;;;0.85;0.30;;;18.10;70.10;;;;;;5035872;28;20033;-53
2023/11/02 01:28:03;;;;;;;1.95;0.40;;;18.10;70.10;;;;;;5034701;28;20041;-51
2023/11/02 01:30:53;;;;;;;0.38;0.30;;;18.10;70.10;;;;;;5036551;28;20040;-55
2023/11/02 01:33:33;;;;;;;0.60;0.40;;;18.00;70.10;;;;;;5036349;28;20036;-52
2023/11/02 01:36:09;;;;;;;0.38;0.38;;;18.10;70.10;;;;;;5035085;28;20028;-56
2023/11/02 01:38:35;;;;;;;1.05;0.38;;;18.10;70.10;;;;;;5035665;28;20025;-57
2023/11/02 01:41:07;;;;;;;0.52;0.30;;;18.00;70.10;;;;;;5033442;28;20131;-57
2023/11/02 01:43:52;;;;;;;1.50;0.60;;;18.00;70.10;;;;;;5035837;28;20026;-52
2023/11/02 01:46:22;;;;;;;0.40;0.30;;;18.00;70.10;;;;;;5037958;28;20033;-59
2023/11/02 01:49:01;;;;;;;0.57;0.40;;;18.00;70.00;;;;;;5035009;28;20028;-59
2023/11/02 01:51:31;;;;;;;0.40;0.40;;;18.00;70.00;;;;;;5038917;28;20075;-58
2023/11/02 01:54:38;;;;;;;1.38;0.43;;;18.00;70.00;;;;;;5035807;28;20120;-58
2023/11/02 01:57:10;;;;;;;1.10;0.45;;;18.00;70.00;;;;;;5021027;28;20044;-56
2023/11/02 01:59:40;;;;;;;0.75;0.38;;;18.00;70.00;;;;;;5034206;28;20032;-56
2023/11/02 02:02:14;;;;;;;2.15;0.57;;;18.00;70.00;;;;;;5032484;28;20549;-52
2023/11/02 02:04:50;;;;;;;0.50;0.50;;;18.00;70.00;;;;;;5034408;28;20037;-57
2023/11/02 02:07:50;;;;;;;0.85;0.60;;;18.00;70.10;;;;;;5047480;28;20697;-53
2023/11/02 02:10:31;;;;;;;0.40;0.40;;;18.00;70.00;;;;;;5032596;28;20044;-52
2023/11/02 02:13:09;;;;;;;0.22;0.22;;;18.00;70.20;;;;;;5031568;28;20122;-54
2023/11/02 02:16:01;;;;;;;0.85;0.75;;;18.00;70.00;;;;;;5036541;28;20053;-57
2023/11/02 02:19:07;;;;;;;1.17;0.40;;;18.00;70.00;;;;;;5036148;28;20055;-55
2023/11/02 02:21:40;;;;;;;0.70;0.30;;;18.00;70.00;;;;;;5037401;28;20037;-58
2023/11/02 02:24:33;;;;;;;0.90;0.40;;;18.00;70.00;;;;;;5033744;28;20366;-52
2023/11/02 02:27:14;;;;;;;0.32;0.32;;;18.00;70.00;;;;;;5029587;28;20025;-54
2023/11/02 02:30:11;;;;;;;0.63;0.43;;;18.00;70.00;;;;;;5038728;28;20029;-59
2023/11/02 02:33:14;;;;;;;1.10;0.30;;;18.00;70.00;;;;;;5036159;28;20401;-55
2023/11/02 02:35:49;;;;;;;1.08;0.30;;;18.00;70.00;;;;;;5033956;28;20094;-56
2023/11/02 02:38:18;;;;;;;0.65;0.40;;;18.00;69.90;;;;;;5053416;28;20041;-50
2023/11/02 02:41:10;;;;;;;1.48;0.40;;;18.00;70.00;;;;;;5037618;28;20025;-58
2023/11/02 02:43:36;;;;;;;0.50;0.30;;;18.00;69.90;;;;;;5040599;28;20025;-58
2023/11/02 02:46:04;;;;;;;0.73;0.30;;;18.00;69.90;;;;;;5038774;28;20040;-57
2023/11/02 02:48:30;;;;;;;0.70;0.50;;;18.00;69.90;;;;;;5042470;28;20438;-57
2023/11/02 02:51:01;;;;;;;0.47;0.30;;;18.00;69.90;;;;;;5040187;28;20033;-57
2023/11/02 02:53:31;;;;;;;0.47;0.47;;;18.00;69.90;;;;;;5043066;28;20393;-55
2023/11/02 02:56:02;;;;;;;0.77;0.50;;;18.00;69.90;;;;;;5041608;28;20357;-55
2023/11/02 02:58:28;;;;;;;0.77;0.30;;;18.00;69.90;;;;;;5046573;28;20078;-58
2023/11/02 03:00:54;;;;;;;1.08;0.65;;;18.00;70.50;;;;;;5039191;28;20021;-58
2023/11/02 03:03:23;;;;;;;0.40;0.40;;;18.00;69.90;;;;;;5039279;28;20112;-57
2023/11/02 03:05:52;;;;;;;0.47;0.30;;;18.00;69.90;;;;;;5038677;28;20086;-54
2023/11/02 03:08:20;;;;;;;0.90;0.30;;;18.00;69.90;;;;;;5037700;28;20389;-58
2023/11/02 03:10:48;;;;;;;0.40;0.30;;;18.00;69.90;;;;;;5041211;28;20029;-55
2023/11/02 03:13:17;;;;;;;0.60;0.50;;;18.00;69.90;;;;;;5041475;28;20087;-57
2023/11/02 03:15:45;;;;;;;0.77;0.50;;;18.00;69.80;;;;;;5038677;28;20040;-54
2023/11/02 03:18:12;;;;;;;0.63;0.30;;;18.00;69.90;;;;;;5044977;28;20024;-56
2023/11/02 03:20:41;;;;;;;0.35;0.30;;;18.00;69.90;;;;;;5044849;28;20057;-55
2023/11/02 03:23:27;;;;;;;0.50;0.40;;;18.00;69.90;;;;;;5056117;28;20025;-52
2023/11/02 03:26:26;;;;;;;1.08;0.20;;;18.00;69.90;;;;;;5032938;28;20087;-58
2023/11/02 03:29:01;;;;;;;2.00;0.73;;;18.00;69.90;;;;;;5037230;28;20386;-54
2023/11/02 03:31:48;;;;;;;0.50;0.40;;;18.00;69.90;;;;;;5034862;28;20060;-58
2023/11/02 03:34:22;;;;;;;0.43;0.40;;;18.00;69.90;;;;;;5051635;28;20041;-55
2023/11/02 03:36:58;;;;;;;0.75;0.57;;;17.90;69.90;;;;;;5036482;28;20033;-55
2023/11/02 03:40:03;;;;;;;0.52;0.40;;;18.00;69.90;;;;;;5039974;28;20104;-52
2023/11/02 03:42:39;;;;;;;0.73;0.30;;;18.00;69.80;;;;;;4997654;28;20033;-57
2023/11/02 03:45:10;;;;;;;1.08;0.50;;;18.00;69.80;;;;;;5037778;28;20029;-58
2023/11/02 03:47:36;;;;;;;0.38;0.30;;;18.00;69.90;;;;;;5034076;28;20035;-55
2023/11/02 03:50:12;;;;;;;1.42;0.40;;;17.90;69.80;;;;;;5051338;28;20282;-56
2023/11/02 03:52:49;;;;;;;0.28;0.22;;;17.90;69.80;;;;;;5036348;28;20033;-55
2023/11/02 03:55:33;;;;;;;0.88;0.45;;;17.90;69.80;;;;;;5038383;28;20127;-55
2023/11/02 03:58:10;;;;;;;0.38;0.22;;;17.90;69.80;;;;;;5037618;28;20082;-56
2023/11/02 04:01:02;;;;;;;1.05;0.43;;;17.90;69.70;;;;;;5034330;28;20036;-51
2023/11/02 04:03:30;;;;;;;0.50;0.40;;;17.90;69.80;;;;;;5019805;28;20033;-55
2023/11/02 04:05:58;;;;;;;0.32;0.30;;;18.00;69.90;;;;;;5036283;28;20481;-56
2023/11/02 04:08:30;;;;;;;1.00;0.60;;;18.00;69.80;;;;;;5036184;28;20029;-57
2023/11/02 04:11:17;;;;;;;0.30;0.20;;;18.00;69.80;;;;;;5036946;28;20029;-54
2023/11/02 04:14:08;;;;;;;0.60;0.30;;;17.90;69.70;;;;;;5040010;28;20041;-53
2023/11/02 04:16:33;;;;;;;1.25;0.50;;;17.90;69.80;;;;;;5039872;28;20140;-55
2023/11/02 04:19:01;;;;;;;0.50;0.40;;;17.90;69.70;;;;;;5041190;28;20270;-56
2023/11/02 04:21:27;;;;;;;0.30;0.30;;;18.00;69.80;;;;;;5040709;28;20051;-56
2023/11/02 04:23:52;;;;;;;0.60;0.60;;;17.90;69.70;;;;;;5037697;28;20588;-56
2023/11/02 04:26:18;;;;;;;0.70;0.45;;;17.90;69.70;;;;;;5037893;28;20106;-54
2023/11/02 04:28:43;;;;;;;2.10;0.70;;;17.90;69.70;;;;;;5040258;28;20389;-54
2023/11/02 04:31:09;;;;;;;0.38;0.30;;;17.90;69.70;;;;;;5039311;28;20502;-54
2023/11/02 04:33:35;;;;;;;0.60;0.30;;;17.90;69.80;;;;;;5039257;28;20025;-56
2023/11/02 04:36:00;;;;;;;0.52;0.35;;;17.90;69.70;;;;;;5034453;28;20021;-56
2023/11/02 04:38:27;;;;;;;1.05;0.55;;;17.90;69.70;;;;;;5042793;28;20063;-55
2023/11/02 04:40:55;;;;;;;0.50;0.30;;;17.90;69.70;;;;;;5039821;28;20025;-55
2023/11/02 04:43:21;;;;;;;0.60;0.40;;;17.90;69.70;;;;;;5042670;28;20112;-55
2023/11/02 04:45:47;;;;;;;0.70;0.45;;;17.90;69.70;;;;;;5040889;28;20748;-54
2023/11/02 04:48:14;;;;;;;1.05;0.30;;;17.90;69.70;;;;;;5041144;28;20154;-55
2023/11/02 04:50:39;;;;;;;0.75;0.38;;;17.90;69.80;;;;;;5036222;28;20124;-55
2023/11/02 04:53:06;;;;;;;1.15;0.43;;;17.90;69.70;;;;;;5035611;28;20118;-56
2023/11/02 04:55:32;;;;;;;0.60;0.40;;;17.90;69.70;;;;;;5042707;28;20036;-55
2023/11/02 04:57:58;;;;;;;0.80;0.40;;;17.90;69.70;;;;;;5036242;28;20022;-56
2023/11/02 05:00:23;;;;;;;1.20;0.30;;;17.90;69.70;;;;;;5040398;28;20027;-58
2023/11/02 05:02:49;;;;;;;0.50;0.40;;;17.90;69.70;;;;;;5040081;28;20428;-56
2023/11/02 05:05:14;;;;;;;0.95;0.60;;;17.90;69.70;;;;;;5037475;28;20533;-54
2023/11/02 05:07:40;;;;;;;0.40;0.40;;;17.90;69.70;;;;;;5044132;28;20248;-56
2023/11/02 05:10:06;;;;;;;0.70;0.50;;;17.90;69.70;;;;;;5039396;28;20048;-55
2023/11/02 05:12:31;;;;;;;1.55;0.60;;;17.90;69.70;;;;;;5040881;28;20056;-56
2023/11/02 05:14:57;;;;;;;0.90;0.52;;;17.90;69.70;;;;;;5043776;28;20052;-55
2023/11/02 05:17:22;;;;;;;0.30;0.30;;;17.90;69.70;;;;;;5043536;28;20119;-53
2023/11/02 05:19:48;;;;;;;0.52;0.30;;;17.90;69.70;;;;;;5039559;28;20063;-55
2023/11/02 05:22:14;;;;;;;0.77;0.50;;;17.90;69.70;;;;;;5034082;28;20040;-56
2023/11/02 05:24:39;;;;;;;0.35;0.32;;;17.90;69.70;;;;;;5039746;28;20523;-55
2023/11/02 05:27:05;;;;;;;0.70;0.40;;;17.90;69.70;;;;;;5038877;28;20025;-57
2023/11/02 05:29:30;;;;;;;0.40;0.40;;;17.90;69.70;;;;;;5043158;28;20461;-57
2023/11/02 05:31:56;;;;;;;0.50;0.38;;;17.90;69.70;;;;;;5037583;28;20029;-55
2023/11/02 05:34:21;;;;;;;0.30;0.30;;;17.90;69.70;;;;;;5037142;28;20053;-57
2023/11/02 05:36:47;;;;;;;1.20;0.55;;;17.90;69.70;;;;;;5041113;28;20036;-55
2023/11/02 05:39:13;;;;;;;1.25;0.93;;;17.90;69.70;;;;;;5038758;28;20040;-56
2023/11/02 05:41:38;;;;;;;0.90;0.40;;;17.90;69.70;;;;;;5040462;28;20106;-55
2023/11/02 05:44:05;;;;;;;1.67;0.52;;;17.90;69.70;;;;;;5038633;28;20103;-55
2023/11/02 05:46:31;;;;;;;1.55;0.43;;;17.90;69.60;;;;;;5041612;28;20044;-56
2023/11/02 05:48:56;;;;;;;0.50;0.40;;;17.90;69.60;;;;;;5036627;28;20029;-56
2023/11/02 05:51:22;;;;;;;0.85;0.40;;;17.90;69.60;;;;;;5036647;28;20033;-57
2023/11/02 05:53:48;;;;;;;0.60;0.60;;;17.90;69.60;;;;;;5033982;28;20041;-55
2023/11/02 05:56:15;;;;;;;0.95;0.43;;;17.90;69.60;;;;;;5033201;28;20037;-55
2023/11/02 05:58:42;;;;;;;0.75;0.35;;;17.80;69.60;;;;;;5036002;28;20041;-54
2023/11/02 06:01:08;;;;;;;0.98;0.63;;;17.80;69.60;;;;;;5038054;28;20032;-55
2023/11/02 06:03:33;;;;;;;0.60;0.60;;;17.80;69.60;;;;;;5036364;28;20048;-55
2023/11/02 06:05:59;;;;;;;0.80;0.60;;;17.90;69.70;;;;;;5038954;28;20025;-55
2023/11/02 06:08:24;;;;;;;0.68;0.57;;;17.80;69.60;;;;;;5039337;28;20095;-53
2023/11/02 06:10:50;;;;;;;1.75;0.57;;;17.80;69.60;;;;;;5042459;28;20070;-59
2023/11/02 06:13:15;;;;;;;0.73;0.50;;;17.80;69.70;;;;;;5039990;28;20525;-56
2023/11/02 06:15:41;;;;;;;0.70;0.60;;;17.80;69.60;;;;;;5041568;28;20512;-54
2023/11/02 06:18:07;;;;;;;1.15;0.90;;;17.80;69.60;;;;;;5038267;28;20036;-56
2023/11/02 06:20:33;;;;;;;0.90;0.47;;;17.90;69.70;;;;;;5040534;28;20063;-56
2023/11/02 06:23:01;;;;;;;0.70;0.47;;;17.80;69.60;;;;;;5043540;28;20505;-55
2023/11/02 06:25:27;;;;;;;0.93;0.60;;;17.80;69.60;;;;;;5038531;28;20037;-56
2023/11/02 06:27:52;;;;;;;0.98;0.50;;;17.80;69.60;;;;;;5038586;28;20036;-56
2023/11/02 06:30:18;;;;;;;1.55;0.70;;;17.80;69.70;;;;;;5037344;28;20033;-58
2023/11/02 06:32:43;;;;;;;1.08;0.70;;;17.80;69.70;;;;;;5038462;28;20033;-52
2023/11/02 06:35:09;;;;;;;2.20;0.70;;;17.80;69.70;;;;;;5040035;28;20052;-59
2023/11/02 06:37:57;;;;;;;1.33;0.75;;;17.80;69.70;;;;;;5041851;28;20116;-55
2023/11/02 06:40:24;;;;;;;2.15;0.73;;;17.80;69.70;;;;;;5041972;28;20136;-57
2023/11/02 06:42:49;;;;;;;1.40;1.00;;;17.80;69.70;;;;;;5040462;28;20021;-59
2023/11/02 06:45:16;;;;;;;3.33;0.80;;;17.80;69.70;;;;;;5039355;28;20036;-57
2023/11/02 06:47:42;;;;;;;2.70;0.93;;;17.80;69.60;;;;;;5039299;28;20546;-58
2023/11/02 06:50:08;;;;;;;0.85;0.70;;;17.80;69.60;;;;;;5040490;28;20052;-57
2023/11/02 06:52:33;;;;;;;0.82;0.50;;;17.80;69.60;;;;;;5039034;28;20037;-58
2023/11/02 06:54:59;;;;;;;1.35;0.77;;;17.80;69.70;;;;;;5037888;28;20139;-60
2023/11/02 06:57:24;;;;;;;4.72;0.90;;;17.80;69.60;;;;;;5035398;28;20059;-58
2023/11/02 06:59:50;;;;;;;1.05;0.80;;;17.80;69.70;;;;;;5034629;28;20094;-56
2023/11/02 07:02:17;;;;;;;1.20;0.82;;;17.80;69.70;;;;;;5035557;28;20086;-58
2023/11/02 07:04:43;;;;;;;1.05;0.70;;;17.80;69.60;;;;;;5040535;28;20089;-58
2023/11/02 07:07:08;;;;;;;1.80;0.90;;;17.80;69.60;;;;;;5039986;28;20721;-58
2023/11/02 07:09:34;;;;;;;2.10;1.02;;;17.80;69.70;;;;;;5041917;28;20573;-54
2023/11/02 07:12:00;;;;;;;1.40;0.90;;;17.80;69.60;;;;;;5039761;28;20094;-55
2023/11/02 07:14:25;;;;;;;1.67;0.90;;;17.80;69.60;;;;;;5039168;28;20087;-58
2023/11/02 07:16:51;;;;;;;2.90;1.20;;;17.80;69.60;;;;;;5039355;28;20048;-55
2023/11/02 07:19:17;;;;;;;3.42;1.25;;;17.80;69.60;;;;;;5037877;28;20148;-58
2023/11/02 07:21:42;;;;;;;1.35;1.25;;;17.80;69.70;;;;;;5037396;28;20025;-56
2023/11/02 07:24:08;;;;;;;1.92;1.20;;;17.80;69.70;;;;;;5036829;28;20044;-58
2023/11/02 07:26:37;;;;;;;2.13;1.15;;;17.80;69.70;;;;;;5037482;28;20386;-58
2023/11/02 07:29:03;;;;;;;1.55;1.13;;;17.80;69.70;;;;;;5032257;28;20116;-59
2023/11/02 07:31:29;;;;;;;3.92;1.70;;;17.80;69.70;;;;;;5037534;28;20166;-57
2023/11/02 07:33:54;;;;;;;1.45;1.30;;;17.80;69.70;;;;;;5041446;28;20060;-57
2023/11/02 07:36:20;;;;;;;1.85;1.45;;;17.80;69.70;;;;;;5040041;28;20025;-60
2023/11/02 07:38:45;;;;;;;2.10;1.63;;;17.80;69.60;;;;;;5042522;28;20190;-58
2023/11/02 07:41:12;;;;;;;2.42;1.70;;;17.80;69.60;;;;;;5038882;28;20025;-56
2023/11/02 07:43:38;;;;;;;2.55;1.85;;;17.80;69.60;;;;;;5039149;28;20360;-54
2023/11/02 07:46:03;;;;;;;3.65;1.80;;;17.80;69.70;;;;;;5037684;28;20059;-59
2023/11/02 07:48:29;;;;;;;3.80;2.15;;;17.80;69.70;;;;;;5039334;28;20029;-57
2023/11/02 07:50:54;;;;;;;3.63;2.65;;;17.80;69.70;;;;;;5034899;28;20022;-62
2023/11/02 07:53:20;;;;;;;3.95;2.38;;;17.80;69.80;;;;;;5033252;28;20021;-58
2023/11/02 07:55:46;;;;;;;4.72;2.33;;;17.80;69.80;;;;;;5033048;28;20028;-59
2023/11/02 07:58:11;;;;;;;8.93;3.58;;;17.80;69.80;;;;;;5033580;28;20433;-57
2023/11/02 08:00:37;;;;;;;3.55;2.50;;;17.70;69.80;;;;;;5034124;28;20668;-59
2023/11/02 08:03:03;;;;;;;6.95;2.78;;;17.80;69.80;;;;;;5039203;28;20037;-58
2023/11/02 08:05:29;;;;;;;13.05;2.90;;;17.80;69.80;;;;;;5055692;28;20043;-58
2023/11/02 08:07:54;;;;;;;6.57;3.17;;;17.80;69.80;;;;;;5039754;28;20029;-58
2023/11/02 08:10:20;;;;;;;7.70;3.08;;;17.80;69.90;;;;;;5039431;28;20502;-56
2023/11/02 08:12:45;;;;;;;6.38;3.42;;;17.80;69.90;;;;;;5038308;28;20045;-57
2023/11/02 08:15:11;;;;;;;6.18;3.58;;;17.80;69.90;;;;;;5035871;28;20072;-60
2023/11/02 08:17:37;;;;;;;6.03;3.22;;;17.80;69.90;;;;;;5033789;28;20033;-57
2023/11/02 08:20:02;;;;;;;5.53;3.60;;;17.70;69.80;;;;;;5035243;28;20690;-58
2023/11/02 08:22:28;;;;;;;7.10;3.53;;;17.80;69.90;;;;;;5033953;28;20513;-58
2023/11/02 08:24:54;;;;;;;7.40;4.18;;;17.70;69.80;;;;;;5032200;28;20036;-58
2023/11/02 08:27:20;;;;;;;6.05;3.10;;;17.70;69.80;;;;;;5036207;28;20029;-58
2023/11/02 08:29:47;;;;;;;5.40;3.35;;;17.70;69.80;;;;;;5031828;28;20045;-59
2023/11/02 08:32:12;;;;;;;4.72;3.08;;;17.70;69.80;;;;;;5034245;28;20033;-55
2023/11/02 08:34:42;;;;;;;5.20;3.30;;;17.80;69.90;;;;;;5036649;28;20045;-58
2023/11/02 08:37:09;;;;;;;6.45;3.60;;;17.70;69.80;;;;;;5037117;28;20025;-58
2023/11/02 08:39:35;;;;;;;6.60;3.63;;;17.70;69.80;;;;;;5037196;28;20313;-55
2023/11/02 08:42:02;;;;;;;9.32;4.00;;;17.70;69.80;;;;;;5032543;28;20029;-57
2023/11/02 08:44:28;;;;;;;5.68;3.60;;;17.80;69.80;;;;;;5034832;28;20047;-57
2023/11/02 08:46:54;;;;;;;8.45;3.97;;;17.70;69.80;;;;;;5033488;28;20430;-58
2023/11/02 08:49:20;;;;;;;6.95;4.07;;;17.70;69.80;;;;;;5033351;28;20083;-60
2023/11/02 08:51:46;;;;;;;7.63;3.05;;;17.70;69.80;;;;;;5031875;28;20455;-57
2023/11/02 08:54:11;;;;;;;10.43;4.22;;;17.70;69.70;;;;;;5032246;28;20047;-56
2023/11/02 08:56:37;;;;;;;7.47;3.70;;;17.70;69.80;;;;;;5031682;28;20168;-57
2023/11/02 08:59:03;;;;;;;8.98;3.92;;;17.70;69.80;;;;;;5032113;28;20025;-57
2023/11/02 09:01:29;;;;;;;6.57;3.97;;;17.70;69.70;;;;;;5036738;28;20087;-56
2023/11/02 09:03:56;;;;;;;7.93;3.80;;;17.70;69.70;;;;;;5037437;28;20060;-59
2023/11/02 09:06:24;;;;;;;6.75;4.03;;;17.70;69.70;;;;;;5025809;28;20112;-54
2023/11/02 09:08:51;;;;;;;6.45;3.30;;;17.70;69.70;;;;;;5037421;28;20032;-53
2023/11/02 09:11:18;;;;;;;5.97;3.70;;;17.70;69.70;;;;;;5034415;28;20522;-56
2023/11/02 09:13:44;;;;;;;6.38;4.03;;;17.80;69.70;;;;;;5034672;28;20037;-57
2023/11/02 09:16:10;;;;;;;6.80;3.65;;;17.70;69.70;;;;;;5034875;28;20029;-58
2023/11/02 09:18:38;;;;;;;6.53;3.55;;;17.80;69.70;;;;;;5034145;28;20100;-58
2023/11/02 09:21:04;;;;;;;7.40;3.70;;;17.70;69.70;;;;;;5029594;28;20032;-59
2023/11/02 09:23:31;;;;;;;6.93;4.30;;;17.70;69.60;;;;;;5031828;28;20057;-56
2023/11/02 09:25:57;;;;;;;6.32;3.47;;;17.70;69.60;;;;;;5027743;28;20033;-58
2023/11/02 09:28:22;;;;;;;5.30;3.40;;;17.80;69.70;;;;;;5032223;28;20379;-57
2023/11/02 09:30:48;;;;;;;4.45;3.75;;;17.80;69.70;;;;;;5037446;28;20574;-57
2023/11/02 09:33:14;;;;;;;8.70;3.95;;;17.70;69.60;;;;;;5036896;28;20029;-54
2023/11/02 09:35:40;;;;;;;5.47;3.40;;;17.70;69.60;;;;;;5037587;28;20291;-53
2023/11/02 09:38:06;;;;;;;6.95;4.22;;;17.70;69.60;;;;;;5034732;28;20072;-58
2023/11/02 09:40:32;;;;;;;6.53;4.18;;;17.70;69.60;;;;;;5034823;28;20035;-58
2023/11/02 09:43:02;;;;;;;5.43;3.20;;;17.70;69.60;;;;;;5031427;28;20067;-58
2023/11/02 09:45:32;;;;;;;8.30;3.88;;;17.80;69.70;;;;;;5031329;28;20043;-56
2023/11/02 09:48:01;;;;;;;4.47;3.33;;;17.70;69.60;;;;;;5033024;28;20530;-55
2023/11/02 09:50:27;;;;;;;6.22;3.10;;;17.70;69.60;;;;;;5034772;28;20604;-55
2023/11/02 09:52:57;;;;;;;6.97;3.85;;;17.80;69.60;;;;;;5033505;28;20037;-55
2023/11/02 09:55:24;;;;;;;5.82;3.95;;;17.80;69.60;;;;;;5029655;23;20033;-66
2023/11/02 09:57:50;;;;;;;5.80;3.58;;;17.70;69.50;;;;;;5019289;28;20029;-68
2023/11/02 10:00:20;;;;;;;6.28;3.95;;;17.70;69.50;;;;;;5020943;28;20041;-65
2023/11/02 10:02:50;;;;;;;4.57;3.40;;;17.80;69.60;;;;;;5041665;28;20556;-67
2023/11/02 10:05:16;;;;;;;5.75;3.83;;;17.70;69.50;;;;;;5041325;28;20814;-66
2023/11/02 10:07:43;;;;;;;4.35;3.80;;;17.70;69.50;;;;;;5042915;28;20021;-65
2023/11/02 10:10:12;;;;;;;5.60;3.45;;;17.80;69.60;;;;;;5037299;28;20093;-65
2023/11/02 10:12:39;;;;;;;5.75;3.38;;;17.70;69.50;;;;;;5039884;28;20027;-65
2023/11/02 10:15:07;;;;;;;6.97;3.75;;;17.70;69.50;;;;;;5055084;28;20033;-65
2023/11/02 10:17:39;;;;;;;5.22;3.20;;;17.80;69.60;;;;;;5040231;28;20120;-66
2023/11/02 10:20:08;;;;;;;4.72;3.17;;;17.70;69.50;;;;;;5036068;28;20032;-65
2023/11/02 10:22:34;;;;;;;4.72;3.50;;;17.70;69.50;;;;;;5036119;28;20034;-66
2023/11/02 10:25:00;;;;;;;5.22;3.13;;;17.70;69.50;;;;;;5037058;28;20057;-65
2023/11/02 10:27:26;;;;;;;4.68;3.50;;;17.70;69.50;;;;;;5036216;28;20434;-65
2023/11/02 10:29:52;;;;;;;5.75;3.42;;;17.70;69.50;;;;;;5032586;28;20527;-66
2023/11/02 10:32:21;;;;;;;4.72;3.42;;;17.70;69.50;;;;;;5039022;28;20163;-65
2023/11/02 10:34:46;;;;;;;3.88;3.15;;;17.70;69.50;;;;;;5041929;28;20099;-65
2023/11/02 10:37:13;;;;;;;5.53;3.30;;;17.70;69.50;;;;;;5038572;28;20030;-65
2023/11/02 10:39:39;;;;;;;3.03;2.47;;;17.80;69.50;;;;;;5041313;28;20286;-66
2023/11/02 10:42:05;;;;;;;5.30;3.40;;;17.70;69.50;;;;;;5039830;28;20029;-66
2023/11/02 10:44:33;;;;;;;5.80;3.08;;;17.70;69.50;;;;;;5040530;28;20079;-65
2023/11/02 10:47:01;;;;;;;4.13;3.30;;;17.70;69.50;;;;;;5037467;28;20056;-66
2023/11/02 10:49:37;;;;;;;5.03;3.42;;;17.70;69.50;;;;;;5034333;28;20574;-65
2023/11/02 10:52:11;;;;;;;3.97;3.42;;;17.70;69.50;;;;;;5037551;28;20030;-65
2023/11/02 10:54:49;;;;;;;5.33;2.97;;;17.70;69.50;;;;;;5037347;28;20521;-64
2023/11/02 10:57:19;;;;;;;3.40;3.05;;;17.70;69.50;;;;;;5045109;28;20037;-64
2023/11/02 10:59:47;;;;;;;4.07;2.53;;;17.70;69.50;;;;;;5039656;28;20040;-65
2023/11/02 11:02:17;;;;;;;5.75;2.80;;;17.70;69.50;;;;;;5044048;28;20079;-64
2023/11/02 11:04:45;;;;;;;4.90;2.92;;;17.70;69.50;;;;;;5045382;28;20033;-65
2023/11/02 11:07:11;;;;;;;3.20;2.72;;;17.70;69.50;;;;;;5043684;28;20026;-65
2023/11/02 11:09:40;;;;;;;4.57;3.03;;;17.70;69.50;;;;;;5044545;28;20032;-65
2023/11/02 11:12:06;;;;;;;3.75;2.90;;;17.70;69.50;;;;;;5058318;28;20518;-65
2023/11/02 11:14:32;;;;;;;3.83;3.25;;;17.70;69.50;;;;;;5043791;28;20107;-65
2023/11/02 11:17:00;;;;;;;5.45;3.20;;;17.70;69.50;;;;;;5043803;28;20044;-65
2023/11/02 11:19:30;;;;;;;4.30;2.88;;;17.70;69.50;;;;;;5039505;28;20057;-64
2023/11/02 11:21:58;;;;;;;5.25;3.15;;;17.70;69.50;;;;;;5038465;28;20029;-65
2023/11/02 11:24:31;;;;;;;4.38;3.17;;;17.70;69.50;;;;;;5038801;28;20632;-65
2023/11/02 11:26:58;;;;;;;4.03;3.08;;;17.70;69.50;;;;;;5042132;28;20021;-64
2023/11/02 11:29:43;;;;;;;5.22;3.10;;;17.70;69.50;;;;;;5043154;28;20040;-65
2023/11/02 11:32:30;;;;;;;3.05;2.70;;;17.70;69.50;;;;;;5044669;28;20036;-65
2023/11/02 11:34:58;;;;;;;3.20;2.83;;;17.70;69.50;;;;;;5040672;28;20059;-64
2023/11/02 11:37:34;;;;;;;4.35;3.08;;;17.70;69.50;;;;;;5043597;28;20560;-65
2023/11/02 11:40:05;;;;;;;3.20;2.80;;;17.70;69.50;;;;;;5042132;28;20025;-66
2023/11/02 11:43:06;;;;;;;4.72;3.25;;;17.70;69.50;;;;;;5042798;28;20048;-65
2023/11/02 11:45:37;;;;;;;3.40;2.53;;;17.70;69.50;;;;;;5040654;28;20025;-65
2023/11/02 11:48:10;;;;;;;4.03;2.97;;;17.70;69.50;;;;;;5039162;28;20581;-65
2023/11/02 11:50:36;;;;;;;3.42;2.80;;;17.70;69.50;;;;;;5036708;28;20037;-65
2023/11/02 11:53:13;;;;;;;5.13;3.00;;;17.70;69.50;;;;;;5042489;28;20029;-68
2023/11/02 11:55:40;;;;;;;3.58;2.60;;;17.70;69.50;;;;;;5042976;28;20592;-67
2023/11/02 11:58:08;;;;;;;3.58;2.53;;;17.70;69.50;;;;;;5045422;28;20033;-68
2023/11/02 12:00:35;;;;;;;3.90;3.03;;;17.60;69.50;;;;;;5046608;28;20036;-67
2023/11/02 12:03:06;;;;;;;3.75;3.05;;;17.70;69.50;;;;;;5020222;28;20033;-66
2023/11/02 12:05:44;;;;;;;3.10;2.50;;;17.70;69.50;;;;;;5044458;28;20063;-66
2023/11/02 12:08:10;;;;;;;3.42;2.83;;;17.70;69.50;;;;;;5033794;28;20582;-66
2023/11/02 12:11:04;;;;;;;4.97;2.70;;;17.70;70.10;;;;;;5042862;28;20033;-66
2023/11/02 12:13:35;;;;;;;3.50;2.65;;;17.70;69.50;;;;;;5024214;28;20079;-69
2023/11/02 12:16:03;;;;;;;4.78;2.75;;;17.70;69.50;;;;;;5038738;28;20029;-67
2023/11/02 12:18:34;;;;;;;5.05;2.80;;;17.70;69.50;;;;;;5040993;28;20032;-67
2023/11/02 12:21:04;;;;;;;3.33;2.42;;;17.70;69.50;;;;;;5050243;28;20566;-67
2023/11/02 12:23:35;;;;;;;3.47;2.60;;;17.70;69.50;;;;;;5038507;28;20263;-67
2023/11/02 12:26:03;;;;;;;3.20;2.72;;;17.70;69.50;;;;;;5044211;28;20636;-66
2023/11/02 12:28:45;;;;;;;2.83;2.30;;;17.70;69.50;;;;;;5045155;28;20022;-65
2023/11/02 12:31:11;;;;;;;5.22;2.72;;;17.70;69.50;;;;;;5045025;28;20424;-66
2023/11/02 12:33:37;;;;;;;3.50;2.78;;;17.70;69.50;;;;;;5046562;28;20029;-65
2023/11/02 12:36:05;;;;;;;3.22;2.67;;;17.70;69.50;;;;;;5043812;28;20384;-67
2023/11/02 12:38:43;;;;;;;3.88;2.75;;;17.70;69.50;;;;;;5046072;28;20525;-66
2023/11/02 12:41:10;;;;;;;3.05;2.40;;;17.70;69.50;;;;;;5045822;28;20025;-65
2023/11/02 12:43:39;;;;;;;3.15;2.80;;;17.70;69.50;;;;;;5042162;28;20029;-64
2023/11/02 12:46:09;;;;;;;2.95;2.30;;;17.70;69.50;;;;;;5037767;28;20121;-65
2023/11/02 12:48:37;;;;;;;3.67;2.80;;;17.70;69.50;;;;;;5040124;28;20107;-65
2023/11/02 12:51:13;;;;;;;3.60;2.60;;;17.70;69.50;;;;;;5043855;28;20743;-67
2023/11/02 12:53:39;;;;;;;3.35;2.90;;;17.70;69.50;;;;;;5035420;28;20049;-65
2023/11/02 12:56:05;;;;;;;3.08;2.78;;;17.70;69.50;;;;;;5043882;28;20210;-66
2023/11/02 12:58:30;;;;;;;3.40;2.80;;;17.70;69.50;;;;;;5042801;28;20033;-65
2023/11/02 13:00:57;;;;;;;3.42;2.75;;;17.70;69.50;;;;;;5041056;28;20514;-66
2023/11/02 13:03:24;;;;;;;3.08;2.25;;;17.70;69.50;;;;;;5041161;28;20039;-66